Time;durP1;ratioP1;P1;durP2;ratioP2;P2;SDS_P1;SDS_P2;PMS_P1;PMS_P2;Temp;Humidity;BMP_temperature;BMP_pressure;BME280_temperature;BME280_humidity;BME280_pressure;Samples;Min_cycle;Max_cycle;Signal;HPM_P1;HPM_P2
2021/01/07 00:01:02;;;;;;;17.27;13.70;;;3.20;99.90;;;;;;5070985;28;20202;-65
2021/01/07 00:03:27;;;;;;;17.87;13.90;;;3.20;99.90;;;;;;5065574;28;20641;-65
2021/01/07 00:05:53;;;;;;;16.27;13.47;;;3.20;99.90;;;;;;5069706;28;20188;-65
2021/01/07 00:08:18;;;;;;;14.77;13.00;;;3.30;99.90;;;;;;5068317;28;20184;-65
2021/01/07 00:10:44;;;;;;;15.80;13.10;;;3.30;99.90;;;;;;5068920;28;20216;-65
2021/01/07 00:13:10;;;;;;;19.43;13.73;;;3.20;99.90;;;;;;5065247;28;20207;-65
2021/01/07 00:15:35;;;;;;;15.13;12.23;;;3.20;99.90;;;;;;5068292;28;20570;-65
2021/01/07 00:18:00;;;;;;;16.00;11.93;;;3.20;99.90;;;;;;5045953;28;20438;-65
2021/01/07 00:20:26;;;;;;;15.53;12.00;;;3.20;99.90;;;;;;5069771;28;20245;-65
2021/01/07 00:22:52;;;;;;;12.03;10.13;;;3.20;99.90;;;;;;5067414;28;20215;-65
2021/01/07 00:25:17;;;;;;;12.30;10.70;;;3.20;99.90;;;;;;5068272;28;20179;-65
2021/01/07 00:27:43;;;;;;;11.87;10.17;;;3.20;99.90;;;;;;5065459;28;20188;-65
2021/01/07 00:30:09;;;;;;;13.33;10.30;;;3.20;99.90;;;;;;5066513;28;20176;-65
2021/01/07 00:32:34;;;;;;;12.63;9.43;;;3.20;99.90;;;;;;5069824;28;20291;-65
2021/01/07 00:35:00;;;;;;;12.77;11.07;;;3.20;99.90;;;;;;5066761;28;20524;-65
2021/01/07 00:37:26;;;;;;;10.90;8.97;;;3.20;99.90;;;;;;5067254;28;20184;-65
2021/01/07 00:39:51;;;;;;;14.67;10.67;;;3.20;99.90;;;;;;5067673;28;20536;-65
2021/01/07 00:42:17;;;;;;;11.27;10.00;;;3.20;99.90;;;;;;5068556;28;20656;-65
2021/01/07 00:44:44;;;;;;;12.93;10.20;;;3.20;99.90;;;;;;5062096;28;20183;-65
2021/01/07 00:47:09;;;;;;;11.10;9.83;;;3.20;99.90;;;;;;5068100;28;20434;-65
2021/01/07 00:49:35;;;;;;;10.13;8.43;;;3.20;99.90;;;;;;5067762;28;20988;-65
2021/01/07 00:52:00;;;;;;;12.23;10.93;;;3.20;99.90;;;;;;5066177;28;20965;-65
2021/01/07 00:54:26;;;;;;;11.40;9.73;;;3.20;99.90;;;;;;5063586;28;20730;-65
2021/01/07 00:56:52;;;;;;;13.70;10.10;;;3.20;99.90;;;;;;5063208;28;20305;-65
2021/01/07 00:59:17;;;;;;;12.10;10.33;;;3.20;99.90;;;;;;5071270;28;20934;-65
2021/01/07 01:01:45;;;;;;;12.77;9.83;;;3.20;99.90;;;;;;5065995;28;20704;-65
2021/01/07 01:04:11;;;;;;;14.23;10.30;;;3.20;99.90;;;;;;5053485;28;20187;-65
2021/01/07 01:06:37;;;;;;;11.97;9.97;;;3.20;99.90;;;;;;5069081;28;20430;-65
2021/01/07 01:09:04;;;;;;;10.20;9.10;;;3.20;99.90;;;;;;5065741;28;20858;-65
2021/01/07 01:11:30;;;;;;;12.33;9.20;;;3.20;99.90;;;;;;5069121;28;20323;-65
2021/01/07 01:13:56;;;;;;;12.17;9.60;;;3.10;99.90;;;;;;5068155;28;20612;-65
2021/01/07 01:16:26;;;;;;;13.37;10.17;;;3.20;99.90;;;;;;5067640;28;20202;-65
2021/01/07 01:18:52;;;;;;;14.73;10.80;;;3.20;99.90;;;;;;5069055;28;20184;-65
2021/01/07 01:21:18;;;;;;;15.70;11.60;;;3.10;99.90;;;;;;5067831;28;21189;-65
2021/01/07 01:23:43;;;;;;;26.50;14.10;;;3.10;99.90;;;;;;5066313;28;20191;-65
2021/01/07 01:26:09;;;;;;;12.10;10.40;;;3.10;99.90;;;;;;5063409;28;20543;-65
2021/01/07 01:28:34;;;;;;;13.00;10.47;;;3.10;99.90;;;;;;5066676;28;20554;-65
2021/01/07 01:31:00;;;;;;;11.40;9.33;;;3.10;99.90;;;;;;5068266;28;20211;-65
2021/01/07 01:33:25;;;;;;;14.90;9.90;;;3.10;99.90;;;;;;5060826;28;20900;-65
2021/01/07 01:35:51;;;;;;;9.90;8.90;;;3.10;99.90;;;;;;5068085;28;20187;-65
2021/01/07 01:38:16;;;;;;;15.17;8.80;;;3.20;99.90;;;;;;5063510;28;20191;-65
2021/01/07 01:40:41;;;;;;;13.53;10.30;;;3.20;99.90;;;;;;5066899;28;20222;-65
2021/01/07 01:43:07;;;;;;;11.60;8.80;;;3.20;99.90;;;;;;5067334;28;20233;-65
2021/01/07 01:45:33;;;;;;;13.37;9.80;;;3.20;99.90;;;;;;5065119;28;20191;-65
2021/01/07 01:47:58;;;;;;;12.53;10.37;;;3.20;99.90;;;;;;5063920;28;20845;-65
2021/01/07 01:50:24;;;;;;;11.13;9.40;;;3.20;99.90;;;;;;5040008;28;20699;-65
2021/01/07 01:52:50;;;;;;;11.27;9.90;;;3.20;99.90;;;;;;5063847;28;20179;-65
2021/01/07 01:55:15;;;;;;;16.10;9.60;;;3.20;99.90;;;;;;5067745;28;20198;-65
2021/01/07 01:57:43;;;;;;;10.43;8.87;;;3.20;99.90;;;;;;5065010;28;20184;-65
2021/01/07 02:00:09;;;;;;;17.33;11.77;;;3.20;99.90;;;;;;5067918;28;20272;-65
2021/01/07 02:02:35;;;;;;;15.17;10.27;;;3.20;99.90;;;;;;5065726;28;20529;-65
2021/01/07 02:05:02;;;;;;;14.50;10.73;;;3.20;99.90;;;;;;5064486;28;20449;-65
2021/01/07 02:07:28;;;;;;;14.37;10.13;;;3.20;99.90;;;;;;5063956;28;20176;-65
2021/01/07 02:09:53;;;;;;;17.03;11.47;;;3.20;99.90;;;;;;5065852;28;20487;-65
2021/01/07 02:12:20;;;;;;;14.53;12.47;;;3.10;99.90;;;;;;5066310;28;20469;-65
2021/01/07 02:14:46;;;;;;;20.67;11.90;;;3.10;99.90;;;;;;5066158;28;20172;-65
2021/01/07 02:17:14;;;;;;;17.67;11.37;;;3.10;99.90;;;;;;5065657;28;20430;-65
2021/01/07 02:19:40;;;;;;;19.27;13.33;;;3.20;99.90;;;;;;5064869;28;20525;-65
2021/01/07 02:22:06;;;;;;;17.20;13.67;;;3.20;99.90;;;;;;5066880;28;20563;-65
2021/01/07 02:24:32;;;;;;;16.67;12.97;;;3.20;99.90;;;;;;5064234;28;20494;-65
2021/01/07 02:27:10;;;;;;;17.20;13.10;;;3.20;99.90;;;;;;5064208;28;20433;-65
2021/01/07 02:29:36;;;;;;;13.90;12.07;;;3.20;99.90;;;;;;5064235;28;20206;-65
2021/01/07 02:32:03;;;;;;;14.90;11.47;;;3.20;99.90;;;;;;5060345;28;21213;-65
2021/01/07 02:34:29;;;;;;;17.83;12.50;;;3.20;99.90;;;;;;5060825;28;20442;-65
2021/01/07 02:36:55;;;;;;;19.90;12.60;;;3.20;99.90;;;;;;5062932;28;20515;-65
2021/01/07 02:39:20;;;;;;;22.00;15.47;;;3.20;99.90;;;;;;5063753;28;20290;-65
2021/01/07 02:41:56;;;;;;;17.00;13.27;;;3.20;99.90;;;;;;5065143;28;20517;-65
2021/01/07 02:44:22;;;;;;;18.27;13.73;;;3.10;99.90;;;;;;5036874;28;20671;-65
2021/01/07 02:46:49;;;;;;;20.43;14.33;;;3.20;99.90;;;;;;5062762;28;20434;-65
2021/01/07 02:49:14;;;;;;;16.60;13.97;;;3.20;99.90;;;;;;5064134;28;20495;-64
2021/01/07 02:51:40;;;;;;;17.40;14.17;;;3.10;99.90;;;;;;5067638;28;20811;-65
2021/01/07 02:54:06;;;;;;;18.43;14.57;;;3.10;99.90;;;;;;5038670;28;20207;-65
2021/01/07 02:56:32;;;;;;;26.70;16.50;;;3.20;99.90;;;;;;5045198;28;20249;-65
2021/01/07 02:58:58;;;;;;;19.03;15.80;;;3.10;99.90;;;;;;5063214;28;20241;-65
2021/01/07 03:01:24;;;;;;;22.20;17.73;;;3.10;99.90;;;;;;5061030;28;20438;-65
2021/01/07 03:03:49;;;;;;;23.27;17.97;;;3.10;99.90;;;;;;5059351;28;20551;-65
2021/01/07 03:06:15;;;;;;;24.83;19.40;;;3.20;99.90;;;;;;5065175;28;20194;-65
2021/01/07 03:08:40;;;;;;;24.77;19.83;;;3.20;99.90;;;;;;5065870;28;20183;-65
2021/01/07 03:11:06;;;;;;;28.90;19.63;;;3.10;99.90;;;;;;5064615;28;20215;-65
2021/01/07 03:13:32;;;;;;;28.97;21.43;;;3.10;99.90;;;;;;5033807;28;20617;-65
2021/01/07 03:15:57;;;;;;;31.73;22.80;;;3.20;99.90;;;;;;5061778;28;20193;-65
2021/01/07 03:18:22;;;;;;;27.83;22.37;;;3.20;99.90;;;;;;5066487;28;20656;-65
2021/01/07 03:20:48;;;;;;;31.10;23.70;;;3.20;99.90;;;;;;5066653;28;20214;-65
2021/01/07 03:23:14;;;;;;;30.87;22.80;;;3.20;99.90;;;;;;5042757;28;20172;-65
2021/01/07 03:25:39;;;;;;;30.93;25.33;;;3.20;99.90;;;;;;5063836;28;20257;-65
2021/01/07 03:28:05;;;;;;;31.07;24.70;;;3.20;99.90;;;;;;5038328;28;20191;-65
2021/01/07 03:30:30;;;;;;;36.37;26.83;;;3.20;99.90;;;;;;5065045;28;20221;-65
2021/01/07 03:32:55;;;;;;;30.43;25.87;;;3.20;99.90;;;;;;5059666;28;20628;-65
2021/01/07 03:35:21;;;;;;;32.33;26.27;;;3.20;99.90;;;;;;5062275;28;20291;-65
2021/01/07 03:37:46;;;;;;;33.77;26.33;;;3.20;99.90;;;;;;5063269;28;20225;-65
2021/01/07 03:40:12;;;;;;;36.77;26.67;;;3.20;99.90;;;;;;5035186;28;20207;-65
2021/01/07 03:42:38;;;;;;;33.13;26.23;;;3.20;99.90;;;;;;5066290;28;20211;-65
2021/01/07 03:45:04;;;;;;;34.43;27.10;;;3.20;99.90;;;;;;5062041;28;20194;-65
2021/01/07 03:47:29;;;;;;;44.50;27.80;;;3.20;99.90;;;;;;5061754;28;20274;-65
2021/01/07 03:49:55;;;;;;;34.23;25.73;;;3.30;99.90;;;;;;5063649;28;20524;-65
2021/01/07 03:52:20;;;;;;;34.97;28.13;;;3.30;99.90;;;;;;5064505;28;20749;-65
2021/01/07 03:54:46;;;;;;;37.30;26.97;;;3.30;99.90;;;;;;5063429;28;20175;-65
2021/01/07 03:57:11;;;;;;;36.83;26.40;;;3.30;99.90;;;;;;5067098;28;20581;-65
2021/01/07 03:59:37;;;;;;;36.10;27.60;;;3.30;99.90;;;;;;5064483;28;20184;-66
2021/01/07 04:02:02;;;;;;;32.00;26.33;;;3.30;99.90;;;;;;5064571;28;20192;-66
2021/01/07 04:04:28;;;;;;;32.73;26.20;;;3.30;99.90;;;;;;5064574;28;20542;-66
2021/01/07 04:06:54;;;;;;;34.60;26.40;;;3.30;99.90;;;;;;5063603;28;20215;-66
2021/01/07 04:09:19;;;;;;;31.90;25.60;;;3.20;99.90;;;;;;5066234;28;20219;-66
2021/01/07 04:11:44;;;;;;;28.67;24.10;;;3.30;99.90;;;;;;5038866;28;21030;-66
2021/01/07 04:14:10;;;;;;;32.43;23.03;;;3.30;99.90;;;;;;5064242;28;20657;-66
2021/01/07 04:16:35;;;;;;;29.17;22.40;;;3.30;99.90;;;;;;5047333;28;20570;-66
2021/01/07 04:19:01;;;;;;;28.90;24.10;;;3.30;99.90;;;;;;5038828;28;20345;-66
2021/01/07 04:21:26;;;;;;;29.93;23.53;;;3.30;99.90;;;;;;5064517;28;20192;-66
2021/01/07 04:23:52;;;;;;;28.03;21.70;;;3.20;99.90;;;;;;5061559;28;20278;-66
2021/01/07 04:26:17;;;;;;;27.73;23.13;;;3.20;99.90;;;;;;5061708;28;20218;-66
2021/01/07 04:28:43;;;;;;;30.00;23.00;;;3.20;99.90;;;;;;5069986;28;20230;-66
2021/01/07 04:31:09;;;;;;;26.07;20.90;;;3.30;99.90;;;;;;5039372;28;20694;-66
2021/01/07 04:33:35;;;;;;;27.90;21.70;;;3.30;99.90;;;;;;5063623;28;20183;-66
2021/01/07 04:36:00;;;;;;;28.03;21.53;;;3.30;99.90;;;;;;5067105;28;20463;-66
2021/01/07 04:38:26;;;;;;;27.40;22.73;;;3.30;99.90;;;;;;5069009;28;20183;-66
2021/01/07 04:40:51;;;;;;;29.60;21.80;;;3.30;99.90;;;;;;5069502;28;20522;-66
2021/01/07 04:43:17;;;;;;;29.63;23.27;;;3.30;99.90;;;;;;5069060;28;20559;-66
2021/01/07 04:45:42;;;;;;;30.57;23.47;;;3.20;99.90;;;;;;5070416;28;20257;-66
2021/01/07 04:48:08;;;;;;;30.03;23.63;;;3.30;99.90;;;;;;5064044;28;20180;-66
2021/01/07 04:50:34;;;;;;;28.53;22.30;;;3.30;99.90;;;;;;5063503;28;20239;-66
2021/01/07 04:53:01;;;;;;;28.87;22.27;;;3.30;99.90;;;;;;5064455;28;20226;-66
2021/01/07 04:55:27;;;;;;;34.20;23.77;;;3.30;99.90;;;;;;5039446;28;20441;-66
2021/01/07 04:57:54;;;;;;;29.80;23.37;;;3.30;99.90;;;;;;5063534;28;20849;-66
2021/01/07 05:00:20;;;;;;;26.40;21.20;;;3.30;99.90;;;;;;5070128;28;20192;-66
2021/01/07 05:02:47;;;;;;;26.47;21.33;;;3.30;99.90;;;;;;5066084;28;20433;-66
2021/01/07 05:05:12;;;;;;;26.43;22.23;;;3.30;99.90;;;;;;5069158;28;20521;-66
2021/01/07 05:07:38;;;;;;;31.20;23.50;;;3.30;99.90;;;;;;5069001;28;20989;-66
2021/01/07 05:10:08;;;;;;;32.53;24.20;;;3.40;99.90;;;;;;5067348;28;20176;-67
2021/01/07 05:12:35;;;;;;;27.67;22.57;;;3.40;99.90;;;;;;5066414;28;20453;-66
2021/01/07 05:15:00;;;;;;;27.90;21.53;;;3.40;99.90;;;;;;5069200;28;20980;-66
2021/01/07 05:17:26;;;;;;;27.63;22.57;;;3.30;99.90;;;;;;5040611;28;20521;-66
2021/01/07 05:19:51;;;;;;;28.47;21.00;;;3.30;99.90;;;;;;5068373;28;20735;-66
2021/01/07 05:22:17;;;;;;;25.77;21.97;;;3.30;99.90;;;;;;5066199;28;20204;-66
2021/01/07 05:24:42;;;;;;;29.77;21.10;;;3.30;99.90;;;;;;5063762;28;20687;-66
2021/01/07 05:27:16;;;;;;;24.17;20.43;;;3.30;99.90;;;;;;5064383;28;20261;-66
2021/01/07 05:29:43;;;;;;;23.80;20.73;;;3.30;99.90;;;;;;5066882;28;20520;-66
2021/01/07 05:32:12;;;;;;;29.50;21.13;;;3.40;99.90;;;;;;5067381;28;20556;-66
2021/01/07 05:34:47;;;;;;;27.90;21.07;;;3.40;99.90;;;;;;5066246;28;20465;-66
2021/01/07 05:37:16;;;;;;;28.00;21.87;;;3.30;99.90;;;;;;5059855;28;20434;-66
2021/01/07 05:39:44;;;;;;;24.63;20.87;;;3.30;99.90;;;;;;5039238;28;21191;-66
2021/01/07 05:42:10;;;;;;;26.90;21.13;;;3.30;99.90;;;;;;5063728;28;20426;-66
2021/01/07 05:44:35;;;;;;;27.33;20.50;;;3.40;99.90;;;;;;5067667;28;20438;-66
2021/01/07 05:47:01;;;;;;;28.23;21.13;;;3.30;99.90;;;;;;5066594;28;20446;-66
2021/01/07 05:49:36;;;;;;;28.30;22.30;;;3.30;99.90;;;;;;5067069;28;20180;-66
2021/01/07 05:52:07;;;;;;;25.40;20.13;;;3.40;99.90;;;;;;5064064;28;20309;-66
2021/01/07 05:54:33;;;;;;;25.70;18.60;;;3.40;99.90;;;;;;5064505;28;20437;-66
2021/01/07 05:57:03;;;;;;;27.40;20.67;;;3.40;99.90;;;;;;5064240;28;21435;-66
2021/01/07 05:59:32;;;;;;;25.00;20.23;;;3.40;99.90;;;;;;5069310;28;20433;-66
2021/01/07 06:02:02;;;;;;;25.13;21.27;;;3.40;99.90;;;;;;5068176;28;20488;-66
2021/01/07 06:04:32;;;;;;;25.60;19.90;;;3.40;99.90;;;;;;5036542;28;20442;-66
2021/01/07 06:06:59;;;;;;;24.27;19.77;;;3.30;99.90;;;;;;5064878;28;20466;-66
2021/01/07 06:09:29;;;;;;;25.43;19.90;;;3.30;99.90;;;;;;5061521;28;20450;-66
2021/01/07 06:11:57;;;;;;;28.30;19.67;;;3.30;99.90;;;;;;5066071;28;21210;-66
2021/01/07 06:14:23;;;;;;;29.03;20.70;;;3.30;99.90;;;;;;5064956;28;20448;-66
2021/01/07 06:16:49;;;;;;;24.60;21.13;;;3.30;99.90;;;;;;5070308;28;20441;-66
2021/01/07 06:19:33;;;;;;;27.57;20.77;;;3.40;99.90;;;;;;5065084;28;20229;-66
2021/01/07 06:22:00;;;;;;;28.53;20.23;;;3.30;99.90;;;;;;5067380;28;20707;-66
2021/01/07 06:24:28;;;;;;;27.70;20.87;;;3.40;99.90;;;;;;5061880;28;20438;-66
2021/01/07 06:26:53;;;;;;;27.97;21.07;;;3.30;99.90;;;;;;5062890;28;20826;-66
2021/01/07 06:29:19;;;;;;;24.77;19.90;;;3.30;99.90;;;;;;5065871;28;20554;-66
2021/01/07 06:31:54;;;;;;;29.43;21.47;;;3.30;99.90;;;;;;5066976;28;20199;-66
2021/01/07 06:34:25;;;;;;;25.77;20.07;;;3.30;99.90;;;;;;5064113;28;20206;-66
2021/01/07 06:36:51;;;;;;;28.20;19.60;;;3.30;99.90;;;;;;5066784;28;20437;-66
2021/01/07 06:39:20;;;;;;;27.40;20.37;;;3.30;99.90;;;;;;5067553;28;20453;-66
2021/01/07 06:41:53;;;;;;;25.27;18.67;;;3.30;99.90;;;;;;5066447;28;20259;-66
2021/01/07 06:44:20;;;;;;;24.43;19.57;;;3.30;99.90;;;;;;5064456;28;21003;-66
2021/01/07 06:46:49;;;;;;;29.77;21.57;;;3.30;99.90;;;;;;5066944;28;20430;-66
2021/01/07 06:49:28;;;;;;;27.70;21.27;;;3.20;99.90;;;;;;5060664;28;20521;-66
2021/01/07 06:51:59;;;;;;;32.50;22.67;;;3.20;99.90;;;;;;5061758;28;20673;-66
2021/01/07 06:54:29;;;;;;;31.90;23.73;;;3.30;99.90;;;;;;5065896;28;20437;-66
2021/01/07 06:56:55;;;;;;;37.43;25.20;;;3.20;99.90;;;;;;5065105;28;20984;-66
2021/01/07 06:59:22;;;;;;;35.17;24.70;;;3.20;99.90;;;;;;5065844;28;20492;-66
2021/01/07 07:01:50;;;;;;;32.43;22.50;;;3.20;99.90;;;;;;5066765;28;20434;-66
2021/01/07 07:04:30;;;;;;;34.33;24.30;;;3.20;99.90;;;;;;5060843;28;20433;-66
2021/01/07 07:07:08;;;;;;;31.63;23.83;;;3.20;99.90;;;;;;5065884;28;20437;-66
2021/01/07 07:09:40;;;;;;;32.67;22.70;;;3.20;99.90;;;;;;5065451;28;20472;-66
2021/01/07 07:12:06;;;;;;;30.33;22.33;;;3.20;99.90;;;;;;5068324;28;20454;-66
2021/01/07 07:14:33;;;;;;;28.50;21.43;;;3.20;99.90;;;;;;5064346;28;21039;-66
2021/01/07 07:17:06;;;;;;;29.87;22.70;;;3.30;99.90;;;;;;5064310;28;20480;-66
2021/01/07 07:19:35;;;;;;;33.70;23.10;;;3.20;99.90;;;;;;5064263;28;20438;-66
2021/01/07 07:22:01;;;;;;;30.80;22.83;;;3.20;99.90;;;;;;5066282;28;20943;-66
2021/01/07 07:24:35;;;;;;;23.13;19.40;;;3.30;99.90;;;;;;5064623;28;20429;-66
2021/01/07 07:27:03;;;;;;;23.40;19.57;;;3.30;99.90;;;;;;5062928;28;20179;-66
2021/01/07 07:29:34;;;;;;;24.60;19.43;;;3.20;99.90;;;;;;5067889;28;20518;-66
2021/01/07 07:32:00;;;;;;;25.40;19.20;;;3.20;99.90;;;;;;5062489;28;20465;-66
2021/01/07 07:34:32;;;;;;;25.03;19.40;;;3.30;99.90;;;;;;5066156;28;20452;-66
2021/01/07 07:37:00;;;;;;;24.80;19.57;;;3.30;99.90;;;;;;5064303;28;20445;-66
2021/01/07 07:39:27;;;;;;;23.77;18.73;;;3.20;99.90;;;;;;5066087;28;20465;-66
2021/01/07 07:42:09;;;;;;;24.43;19.63;;;3.20;99.90;;;;;;5061624;28;20433;-66
2021/01/07 07:44:35;;;;;;;24.73;19.37;;;3.30;99.90;;;;;;5066399;28;20939;-66
2021/01/07 07:47:01;;;;;;;24.90;20.10;;;3.30;99.90;;;;;;5038371;28;20646;-66
2021/01/07 07:49:26;;;;;;;28.50;21.40;;;3.30;99.90;;;;;;5063390;28;20180;-66
2021/01/07 07:51:52;;;;;;;25.90;19.87;;;3.30;99.90;;;;;;5063716;28;20223;-66
2021/01/07 07:54:18;;;;;;;25.60;20.63;;;3.30;99.90;;;;;;5064249;28;20194;-66
2021/01/07 07:56:43;;;;;;;23.13;19.10;;;3.30;99.90;;;;;;5066355;28;20180;-66
2021/01/07 07:59:11;;;;;;;28.57;20.77;;;3.30;99.90;;;;;;5064725;28;20210;-66
2021/01/07 08:01:44;;;;;;;25.90;18.93;;;3.30;99.90;;;;;;5067425;28;20461;-66
2021/01/07 08:04:11;;;;;;;22.53;17.10;;;3.30;99.90;;;;;;5064292;28;20446;-66
2021/01/07 08:06:37;;;;;;;24.73;17.67;;;3.30;99.90;;;;;;5070424;28;20445;-66
2021/01/07 08:09:05;;;;;;;23.57;18.23;;;3.30;99.90;;;;;;5066340;28;20440;-66
2021/01/07 08:11:32;;;;;;;20.83;17.43;;;3.30;99.90;;;;;;5069925;28;20223;-66
2021/01/07 08:13:58;;;;;;;19.90;14.63;;;3.40;99.90;;;;;;5067159;28;20803;-66
2021/01/07 08:16:25;;;;;;;22.07;16.77;;;3.40;99.90;;;;;;5071354;28;20441;-66
2021/01/07 08:18:51;;;;;;;19.10;15.97;;;3.40;99.90;;;;;;5065022;28;20438;-66
2021/01/07 08:21:17;;;;;;;19.73;14.93;;;3.40;99.90;;;;;;5042788;28;20441;-66
2021/01/07 08:23:42;;;;;;;18.17;15.13;;;3.30;99.90;;;;;;5067586;28;20195;-66
2021/01/07 08:26:12;;;;;;;15.10;13.50;;;3.30;99.90;;;;;;5064273;28;20279;-66
2021/01/07 08:28:40;;;;;;;13.67;11.70;;;3.30;99.90;;;;;;5036636;28;20180;-66
2021/01/07 08:31:09;;;;;;;18.30;13.83;;;3.30;99.90;;;;;;5068500;28;20473;-66
2021/01/07 08:33:35;;;;;;;17.90;15.37;;;3.30;99.90;;;;;;5066221;28;20494;-66
2021/01/07 08:36:08;;;;;;;17.63;14.20;;;3.40;99.90;;;;;;5070253;28;20802;-66
2021/01/07 08:38:35;;;;;;;15.40;13.57;;;3.40;99.90;;;;;;5067013;28;20445;-66
2021/01/07 08:41:15;;;;;;;16.53;13.37;;;3.40;99.90;;;;;;5065507;28;20456;-66
2021/01/07 08:43:43;;;;;;;15.67;12.27;;;3.40;99.90;;;;;;5068126;28;20456;-66
2021/01/07 08:46:20;;;;;;;16.50;13.30;;;3.40;99.90;;;;;;5066888;28;20441;-66
2021/01/07 08:49:00;;;;;;;13.33;11.93;;;3.50;99.90;;;;;;5063749;28;20868;-66
2021/01/07 08:51:26;;;;;;;15.37;12.40;;;3.50;99.90;;;;;;5066381;28;20457;-66
2021/01/07 08:53:56;;;;;;;16.87;12.50;;;3.50;99.90;;;;;;5067142;28;20460;-66
2021/01/07 08:56:45;;;;;;;15.70;11.80;;;3.50;99.90;;;;;;5067157;28;20206;-66
2021/01/07 08:59:21;;;;;;;15.03;10.90;;;3.50;99.90;;;;;;5066912;28;20446;-66
2021/01/07 09:01:49;;;;;;;11.37;9.23;;;3.60;99.90;;;;;;5067345;28;20443;-66
2021/01/07 09:04:35;;;;;;;12.90;10.33;;;3.60;99.90;;;;;;5063119;28;20442;-66
2021/01/07 09:07:09;;;;;;;11.50;10.30;;;3.70;99.90;;;;;;5064776;28;20433;-67
2021/01/07 09:09:46;;;;;;;13.70;10.00;;;3.70;99.90;;;;;;5066288;28;20434;-66
2021/01/07 09:12:17;;;;;;;14.50;11.40;;;3.80;99.90;;;;;;5065847;28;20472;-66
2021/01/07 09:14:47;;;;;;;12.17;10.10;;;3.80;99.90;;;;;;5067237;28;20446;-66
2021/01/07 09:17:13;;;;;;;12.63;10.50;;;3.80;99.90;;;;;;5065956;28;21841;-66
2021/01/07 09:19:39;;;;;;;15.00;11.13;;;3.80;99.90;;;;;;5066577;28;20430;-67
2021/01/07 09:22:04;;;;;;;17.03;12.73;;;3.80;99.90;;;;;;5069342;28;20551;-67
2021/01/07 09:24:37;;;;;;;16.50;12.80;;;3.80;99.90;;;;;;5062655;28;20192;-67
2021/01/07 09:27:11;;;;;;;16.57;12.93;;;3.80;99.90;;;;;;5060726;28;20197;-66
2021/01/07 09:29:37;;;;;;;15.83;12.60;;;3.80;99.90;;;;;;5067590;28;20787;-67
2021/01/07 09:32:04;;;;;;;17.20;13.60;;;3.80;99.90;;;;;;5063641;28;20542;-66
2021/01/07 09:34:30;;;;;;;19.00;14.53;;;3.80;99.90;;;;;;5064255;28;20442;-66
2021/01/07 09:37:02;;;;;;;18.57;14.40;;;3.80;99.90;;;;;;5066519;28;20450;-66
2021/01/07 09:39:28;;;;;;;18.93;14.37;;;3.80;99.90;;;;;;5067390;28;20621;-67
2021/01/07 09:41:53;;;;;;;18.83;14.80;;;3.80;99.90;;;;;;5060517;28;20588;-67
2021/01/07 09:44:19;;;;;;;18.80;15.13;;;3.80;99.90;;;;;;5068738;28;20994;-67
2021/01/07 09:46:44;;;;;;;19.23;16.00;;;3.80;99.90;;;;;;5063242;28;20203;-67
2021/01/07 09:49:10;;;;;;;20.23;16.97;;;3.80;99.90;;;;;;5040642;28;20187;-67
2021/01/07 09:51:35;;;;;;;19.50;15.30;;;3.80;99.90;;;;;;5067406;28;20242;-67
2021/01/07 09:54:01;;;;;;;19.50;15.30;;;3.90;99.90;;;;;;5068869;28;20256;-67
2021/01/07 09:56:26;;;;;;;19.30;15.67;;;3.80;99.90;;;;;;5064795;28;20432;-67
2021/01/07 09:58:52;;;;;;;19.73;16.10;;;3.80;99.90;;;;;;5064596;28;20195;-67
2021/01/07 10:01:18;;;;;;;17.63;15.20;;;3.80;99.90;;;;;;5068491;28;20203;-67
2021/01/07 10:03:43;;;;;;;19.00;15.03;;;3.80;99.90;;;;;;5063695;28;20211;-66
2021/01/07 10:06:09;;;;;;;17.27;14.77;;;3.90;99.90;;;;;;5060760;28;20461;-67
2021/01/07 10:08:35;;;;;;;15.50;12.57;;;3.90;99.90;;;;;;5066908;28;20599;-67
2021/01/07 10:11:00;;;;;;;16.23;14.33;;;3.90;99.90;;;;;;5065783;28;20215;-67
2021/01/07 10:13:26;;;;;;;18.50;13.77;;;3.90;99.90;;;;;;5065011;28;20274;-67
2021/01/07 10:15:51;;;;;;;15.20;13.23;;;3.90;99.90;;;;;;5066046;28;20184;-67
2021/01/07 10:18:17;;;;;;;16.50;13.60;;;4.00;99.90;;;;;;5067288;28;20203;-67
2021/01/07 10:20:42;;;;;;;14.53;12.53;;;4.00;99.90;;;;;;5065706;28;20184;-67
2021/01/07 10:23:11;;;;;;;16.37;13.43;;;4.00;99.90;;;;;;5064697;28;20196;-67
2021/01/07 10:25:36;;;;;;;16.00;12.97;;;4.10;99.90;;;;;;5064811;28;20179;-66
2021/01/07 10:28:02;;;;;;;15.00;13.40;;;4.10;99.90;;;;;;5061447;28;20460;-67
2021/01/07 10:30:28;;;;;;;15.47;12.77;;;4.10;99.90;;;;;;5032809;28;20212;-67
2021/01/07 10:32:54;;;;;;;18.40;15.50;;;4.10;99.90;;;;;;5065504;28;20468;-66
2021/01/07 10:35:21;;;;;;;17.67;15.30;;;4.10;99.90;;;;;;5066274;28;20445;-67
2021/01/07 10:37:54;;;;;;;21.30;17.63;;;4.00;99.90;;;;;;5067105;28;20440;-67
2021/01/07 10:40:21;;;;;;;21.30;16.80;;;4.00;99.90;;;;;;5067563;28;20454;-67
2021/01/07 10:42:47;;;;;;;19.30;16.17;;;4.00;99.90;;;;;;5036610;28;20988;-67
2021/01/07 10:45:13;;;;;;;18.53;16.07;;;4.00;99.90;;;;;;5063670;28;20831;-67
2021/01/07 10:47:44;;;;;;;20.20;16.07;;;4.00;99.90;;;;;;5066892;28;20511;-66
2021/01/07 10:50:12;;;;;;;17.10;14.30;;;4.00;99.90;;;;;;5066358;28;20183;-67
2021/01/07 10:52:43;;;;;;;17.90;15.20;;;4.00;99.90;;;;;;5066711;28;20783;-67
2021/01/07 10:55:26;;;;;;;17.80;15.07;;;3.90;99.90;;;;;;5063107;28;20449;-67
2021/01/07 10:58:14;;;;;;;16.00;14.10;;;3.90;99.90;;;;;;5067495;28;20449;-67
2021/01/07 11:00:51;;;;;;;15.77;13.97;;;3.90;99.90;;;;;;5036828;28;20487;-67
2021/01/07 11:03:25;;;;;;;17.00;14.17;;;3.90;99.90;;;;;;5064137;28;20447;-66
2021/01/07 11:05:54;;;;;;;15.20;12.97;;;3.90;99.90;;;;;;5065204;28;20437;-67
2021/01/07 11:08:29;;;;;;;22.90;15.83;;;3.90;99.90;;;;;;5065315;28;20446;-67
2021/01/07 11:10:59;;;;;;;17.53;14.37;;;3.90;99.90;;;;;;5065574;28;20500;-67
2021/01/07 11:13:32;;;;;;;16.83;13.90;;;3.80;99.90;;;;;;5066823;28;20437;-66
2021/01/07 11:15:58;;;;;;;16.20;14.50;;;3.80;99.90;;;;;;5063126;28;20433;-66
2021/01/07 11:18:33;;;;;;;15.73;13.83;;;3.90;99.90;;;;;;5066422;28;20437;-67
2021/01/07 11:21:02;;;;;;;15.00;13.20;;;3.80;99.90;;;;;;5065469;28;20191;-67
2021/01/07 11:23:27;;;;;;;19.83;14.67;;;3.90;99.90;;;;;;5066648;28;20437;-67
2021/01/07 11:25:53;;;;;;;16.47;12.97;;;3.90;99.90;;;;;;5061241;28;20818;-67
2021/01/07 11:28:19;;;;;;;18.50;15.27;;;3.90;99.90;;;;;;5066862;28;20237;-67
2021/01/07 11:30:46;;;;;;;18.90;13.30;;;3.90;99.90;;;;;;5062017;28;20204;-66
2021/01/07 11:33:15;;;;;;;16.63;14.13;;;3.90;99.90;;;;;;5058671;28;20519;-67
2021/01/07 11:35:47;;;;;;;15.73;13.27;;;3.90;99.90;;;;;;5065568;28;20438;-67
2021/01/07 11:38:22;;;;;;;17.43;15.47;;;3.90;99.90;;;;;;5038070;28;20524;-67
2021/01/07 11:40:57;;;;;;;14.73;13.07;;;3.90;99.90;;;;;;5069179;28;20769;-67
2021/01/07 11:43:50;;;;;;;16.00;12.70;;;3.90;99.90;;;;;;5069445;28;20486;-67
2021/01/07 11:46:20;;;;;;;15.13;13.60;;;3.90;99.90;;;;;;5064214;28;20524;-67
2021/01/07 11:48:56;;;;;;;15.83;14.13;;;3.90;99.90;;;;;;5065214;28;20513;-66
2021/01/07 11:51:21;;;;;;;16.20;13.83;;;4.00;99.90;;;;;;5067299;28;20529;-67
2021/01/07 11:53:48;;;;;;;17.07;15.27;;;4.00;99.90;;;;;;5066109;28;20445;-67
2021/01/07 11:56:15;;;;;;;20.30;15.93;;;4.00;99.90;;;;;;5066846;28;20223;-67
2021/01/07 11:58:42;;;;;;;16.00;14.07;;;4.00;99.90;;;;;;5066188;28;20476;-67
2021/01/07 12:01:09;;;;;;;16.80;13.40;;;4.00;99.90;;;;;;5069659;28;20518;-67
2021/01/07 12:03:35;;;;;;;15.27;13.43;;;4.00;99.90;;;;;;5041248;28;20478;-67
2021/01/07 12:06:03;;;;;;;15.23;13.23;;;4.00;99.90;;;;;;5068991;28;20445;-67
2021/01/07 12:08:45;;;;;;;17.03;12.70;;;4.00;99.90;;;;;;5065402;28;20842;-67
2021/01/07 12:11:29;;;;;;;22.27;14.60;;;4.10;99.90;;;;;;5065751;28;20810;-67
2021/01/07 12:14:12;;;;;;;16.67;13.77;;;4.10;99.90;;;;;;5070830;28;20824;-67
2021/01/07 12:16:52;;;;;;;15.43;13.60;;;4.10;99.90;;;;;;5065927;28;20441;-67
2021/01/07 12:19:21;;;;;;;15.73;13.80;;;4.10;99.90;;;;;;5069001;28;20460;-67
2021/01/07 12:21:48;;;;;;;14.93;13.27;;;4.20;99.90;;;;;;5066367;28;20430;-67
2021/01/07 12:24:16;;;;;;;15.60;13.90;;;4.10;99.90;;;;;;5062832;28;20471;-67
2021/01/07 12:26:45;;;;;;;16.03;13.53;;;4.10;99.90;;;;;;5065444;28;20433;-67
2021/01/07 12:29:24;;;;;;;17.30;14.03;;;4.10;99.90;;;;;;5044568;28;20468;-67
2021/01/07 12:31:54;;;;;;;16.67;12.70;;;4.20;99.90;;;;;;5043010;28;20457;-67
2021/01/07 12:35:05;;;;;;;13.93;12.50;;;4.10;99.90;;;;;;5066033;28;20824;-67
2021/01/07 12:37:41;;;;;;;19.73;15.13;;;4.20;99.90;;;;;;5065601;28;20494;-67
2021/01/07 12:40:13;;;;;;;15.87;14.00;;;4.10;99.90;;;;;;5065313;28;21329;-66
2021/01/07 12:42:46;;;;;;;18.73;15.47;;;4.10;99.90;;;;;;5069781;28;20840;-66